createdAt,value
2023-03-13T00:01:16.236Z,1.88
2023-03-13T00:04:02.984Z,2.05
2023-03-13T00:06:49.008Z,5.28
2023-03-13T00:09:35.158Z,1.13
2023-03-13T00:12:21.339Z,1.13
2023-03-13T00:15:07.836Z,2.55
2023-03-13T00:17:53.902Z,2.25
2023-03-13T00:20:40.022Z,1.00
2023-03-13T00:23:26.127Z,2.70
2023-03-13T00:26:14.019Z,1.38
2023-03-13T00:28:59.962Z,1.35
2023-03-13T00:31:45.731Z,2.25
2023-03-13T00:34:32.046Z,3.22
2023-03-13T00:37:18.287Z,1.75
2023-03-13T00:40:23.021Z,1.15
2023-03-13T00:43:09.249Z,1.02
2023-03-13T00:45:55.773Z,1.00
2023-03-13T00:48:42.157Z,2.40
2023-03-13T00:51:28.968Z,0.80
2023-03-13T00:54:15.062Z,1.60
2023-03-13T00:57:01.155Z,2.97
2023-03-13T00:59:47.584Z,1.25
2023-03-13T01:02:33.833Z,4.00
2023-03-13T01:05:20.311Z,1.90
2023-03-13T01:08:06.679Z,1.90
2023-03-13T01:10:57.977Z,2.35
2023-03-13T01:13:44.121Z,2.35
2023-03-13T01:16:31.371Z,1.30
2023-03-13T01:19:18.180Z,1.90
2023-03-13T01:22:05.026Z,3.15
2023-03-13T01:24:52.701Z,2.25
2023-03-13T01:27:39.513Z,2.20
2023-03-13T01:30:25.623Z,0.80
2023-03-13T01:33:11.863Z,1.83
2023-03-13T01:36:01.946Z,1.30
2023-03-13T01:38:49.264Z,1.35
2023-03-13T01:41:35.625Z,1.00
2023-03-13T01:44:26.134Z,2.15
2023-03-13T01:47:13.808Z,1.10
2023-03-13T01:50:14.309Z,0.80
2023-03-13T01:53:13.087Z,1.25
2023-03-13T01:56:00.425Z,1.98
2023-03-13T01:58:48.204Z,1.10
2023-03-13T02:01:35.643Z,1.00
2023-03-13T02:04:30.420Z,2.25
2023-03-13T02:07:18.587Z,3.25
2023-03-13T02:10:18.886Z,1.80
2023-03-13T02:13:04.919Z,1.08
2023-03-13T02:15:54.642Z,2.28
2023-03-13T02:18:43.250Z,1.40
2023-03-13T02:21:39.351Z,2.17
2023-03-13T02:24:44.051Z,1.05
2023-03-13T02:27:30.483Z,2.55
2023-03-13T02:30:16.757Z,1.83
2023-03-13T02:33:03.846Z,1.63
2023-03-13T02:35:50.292Z,1.15
2023-03-13T02:38:40.683Z,1.63
2023-03-13T02:41:31.242Z,1.60
2023-03-13T02:44:19.445Z,3.13
2023-03-13T02:47:05.766Z,1.45
2023-03-13T02:49:52.039Z,3.30
2023-03-13T02:52:40.069Z,1.42
2023-03-13T02:55:29.972Z,1.05
2023-03-13T02:58:15.896Z,1.15
2023-03-13T03:01:08.414Z,2.95
2023-03-13T03:03:58.023Z,2.67
2023-03-13T03:06:44.092Z,2.70
2023-03-13T03:09:30.298Z,2.17
2023-03-13T03:12:21.136Z,0.82
2023-03-13T03:15:07.693Z,2.25
2023-03-13T03:17:54.918Z,3.05
2023-03-13T03:20:41.794Z,1.23
2023-03-13T03:23:27.872Z,2.35
2023-03-13T03:26:16.791Z,1.85
2023-03-13T03:29:02.898Z,2.00
2023-03-13T03:31:49.782Z,0.90
2023-03-13T03:34:36.351Z,4.38
2023-03-13T03:37:22.707Z,3.33
2023-03-13T03:40:10.093Z,5.93
2023-03-13T03:42:56.237Z,4.25
2023-03-13T03:45:42.491Z,2.30
2023-03-13T03:48:29.264Z,6.10
2023-03-13T03:51:15.702Z,2.65
2023-03-13T03:54:04.080Z,0.80
2023-03-13T03:56:51.911Z,3.08
2023-03-13T03:59:38.051Z,1.95
2023-03-13T04:02:28.269Z,1.88
2023-03-13T04:05:14.484Z,2.13
2023-03-13T04:08:00.563Z,1.13
2023-03-13T04:10:46.720Z,2.10
2023-03-13T04:13:32.890Z,4.68
2023-03-13T04:16:19.037Z,2.63
2023-03-13T04:19:07.600Z,1.50
2023-03-13T04:21:54.841Z,1.70
2023-03-13T04:24:41.907Z,1.25
2023-03-13T04:27:28.526Z,2.47
2023-03-13T04:30:16.865Z,1.30
2023-03-13T04:33:24.118Z,1.70
2023-03-13T04:36:33.081Z,1.38
2023-03-13T04:39:28.112Z,2.63
2023-03-13T04:42:36.856Z,1.00
2023-03-13T04:45:41.413Z,1.48
2023-03-13T04:48:42.091Z,2.45
2023-03-13T04:51:57.037Z,1.13
2023-03-13T04:55:10.207Z,0.65
2023-03-13T04:58:25.441Z,1.38
2023-03-13T05:01:26.544Z,2.28
2023-03-13T05:04:52.096Z,2.25
2023-03-13T05:08:08.897Z,4.20
2023-03-13T05:11:07.725Z,1.15
2023-03-13T05:14:19.552Z,2.58
2023-03-13T05:17:24.730Z,4.40
2023-03-13T05:20:39.828Z,4.95
2023-03-13T05:23:56.394Z,3.63
2023-03-13T05:27:01.035Z,1.00
2023-03-13T05:29:54.277Z,1.55
2023-03-13T05:33:06.384Z,3.53
2023-03-13T05:36:18.600Z,2.05
2023-03-13T05:39:33.580Z,1.45
2023-03-13T05:42:46.198Z,2.85
2023-03-13T05:46:02.182Z,3.78
2023-03-13T05:49:00.293Z,2.47
2023-03-13T05:52:05.843Z,3.58
2023-03-13T05:55:27.231Z,3.95
2023-03-13T05:58:27.665Z,1.67
2023-03-13T06:01:30.364Z,1.27
2023-03-13T06:04:36.670Z,3.15
2023-03-13T06:07:22.777Z,4.85
2023-03-13T06:10:09.412Z,4.13
2023-03-13T06:12:56.059Z,3.03
2023-03-13T06:15:55.817Z,3.50
2023-03-13T06:19:03.232Z,1.67
2023-03-13T06:21:49.247Z,3.30
2023-03-13T06:24:35.408Z,3.78
2023-03-13T06:27:21.600Z,2.05
2023-03-13T06:30:09.478Z,4.00
2023-03-13T06:32:55.766Z,2.42
2023-03-13T06:35:55.358Z,2.95
2023-03-13T06:38:42.712Z,3.85
2023-03-13T06:41:29.156Z,4.50
2023-03-13T06:44:15.273Z,9.02
2023-03-13T06:47:01.414Z,4.35
2023-03-13T06:49:47.502Z,3.63
2023-03-13T06:52:43.104Z,4.28
2023-03-13T06:55:30.159Z,5.10
2023-03-13T06:58:31.161Z,6.05
2023-03-13T07:01:18.679Z,5.93
2023-03-13T07:04:04.891Z,5.15
2023-03-13T07:06:51.465Z,6.82
2023-03-13T07:09:37.832Z,22.92
2023-03-13T07:12:24.313Z,3.95
2023-03-13T07:15:10.581Z,16.13
2023-03-13T07:17:57.436Z,18.60
2023-03-13T07:20:44.381Z,22.23
2023-03-13T07:23:31.315Z,22.67
2023-03-13T07:26:17.561Z,15.20
2023-03-13T07:29:04.134Z,8.70
2023-03-13T07:31:50.273Z,19.63
2023-03-13T07:34:36.471Z,25.65
2023-03-13T07:37:22.278Z,32.10
2023-03-13T07:40:11.328Z,24.42
2023-03-13T07:42:57.586Z,18.42
2023-03-13T07:45:50.550Z,15.00
2023-03-13T07:48:37.795Z,21.60
2023-03-13T07:51:36.752Z,19.05
2023-03-13T07:54:28.462Z,18.00
2023-03-13T07:57:14.563Z,14.15
2023-03-13T08:00:00.585Z,14.25
2023-03-13T08:02:46.758Z,14.95
2023-03-13T08:05:33.057Z,14.30
2023-03-13T08:08:20.486Z,14.57
2023-03-13T08:11:13.359Z,13.43
2023-03-13T08:13:59.368Z,12.82
2023-03-13T08:16:45.402Z,10.38
2023-03-13T08:19:31.510Z,12.18
2023-03-13T08:22:17.599Z,11.32
2023-03-13T08:25:04.084Z,10.88
2023-03-13T08:27:49.975Z,10.57
2023-03-13T08:30:36.433Z,12.00
2023-03-13T08:33:22.747Z,14.48
2023-03-13T08:36:11.922Z,15.40
2023-03-13T08:38:59.401Z,11.13
2023-03-13T08:41:45.738Z,11.93
2023-03-13T08:44:32.119Z,12.88
2023-03-13T08:47:21.184Z,11.82
2023-03-13T08:50:07.482Z,12.07
2023-03-13T08:52:53.271Z,15.68
2023-03-13T08:55:39.389Z,11.88
2023-03-13T08:58:25.622Z,13.00
2023-03-13T09:01:13.108Z,13.07
2023-03-13T09:04:03.613Z,16.33
2023-03-13T09:06:50.372Z,13.45
2023-03-13T09:09:36.758Z,18.88
2023-03-13T09:12:30.682Z,12.95
2023-03-13T09:15:17.517Z,2.25
2023-03-13T09:18:03.798Z,15.85
2023-03-13T09:20:50.392Z,7.45
2023-03-13T09:23:36.907Z,12.32
2023-03-13T09:26:23.669Z,1.58
2023-03-13T09:29:10.015Z,9.70
2023-03-13T09:31:56.055Z,2.95
2023-03-13T09:34:42.314Z,13.00
2023-03-13T09:37:28.551Z,23.63
2023-03-13T09:40:20.763Z,7.47
2023-03-13T09:43:15.518Z,1.75
2023-03-13T09:46:03.207Z,6.60
2023-03-13T09:48:51.396Z,10.48
2023-03-13T09:51:38.775Z,10.15
2023-03-13T09:54:43.072Z,7.80
2023-03-13T09:57:33.604Z,12.50
2023-03-13T10:00:24.724Z,13.75
2023-03-13T10:03:11.126Z,9.80
2023-03-13T10:06:01.994Z,18.05
2023-03-13T10:08:47.941Z,9.85
2023-03-13T10:11:40.830Z,10.25
2023-03-13T10:14:32.029Z,9.65
2023-03-13T10:17:32.666Z,11.73
2023-03-13T10:20:29.704Z,9.13
2023-03-13T10:23:18.703Z,12.55
2023-03-13T10:26:05.044Z,14.43
2023-03-13T10:28:51.536Z,14.20
2023-03-13T10:31:38.336Z,10.70
2023-03-13T10:34:25.209Z,13.77
2023-03-13T10:37:14.174Z,17.58
2023-03-13T10:40:19.200Z,12.02
2023-03-13T10:43:25.549Z,9.90
2023-03-13T10:46:23.997Z,14.63
2023-03-13T10:49:16.614Z,17.90
2023-03-13T10:54:48.430Z,11.43
2023-03-13T10:57:37.937Z,16.15
2023-03-13T11:00:34.693Z,11.80
2023-03-13T11:03:24.367Z,8.00
2023-03-13T11:06:23.928Z,8.98
2023-03-13T11:09:19.638Z,10.98
2023-03-13T11:12:10.122Z,9.23
2023-03-13T11:21:39.649Z,7.68
2023-03-13T11:24:32.117Z,7.85
2023-03-13T11:27:23.485Z,7.35
2023-03-13T11:30:10.034Z,7.55
2023-03-13T11:32:58.637Z,5.80
2023-03-13T11:35:56.568Z,8.55
2023-03-13T11:38:46.570Z,8.15
2023-03-13T11:41:35.086Z,6.57
2023-03-13T11:44:35.979Z,8.43
2023-03-13T11:47:41.901Z,8.32
2023-03-13T11:50:30.960Z,7.47
2023-03-13T11:53:16.983Z,7.05
2023-03-13T11:56:03.208Z,6.57
2023-03-13T11:59:08.347Z,6.70
2023-03-13T12:02:01.274Z,6.88
2023-03-13T12:05:11.030Z,7.55
2023-03-13T12:08:10.570Z,7.38
2023-03-13T12:11:04.860Z,6.10
2023-03-13T12:13:56.946Z,7.07
2023-03-13T12:19:49.257Z,7.85
2023-03-13T12:22:39.328Z,12.55
2023-03-13T12:25:31.454Z,14.77
2023-03-13T12:28:27.076Z,7.32
2023-03-13T12:31:13.316Z,6.07
2023-03-13T12:34:02.460Z,7.63
2023-03-13T12:36:56.126Z,7.35
2023-03-13T12:39:48.038Z,9.95
2023-03-13T12:42:49.912Z,6.60
2023-03-13T12:45:38.037Z,6.60
2023-03-13T12:48:51.052Z,5.32
2023-03-13T12:52:06.309Z,6.40
2023-03-13T12:54:56.508Z,7.65
2023-03-13T12:58:09.041Z,9.75
2023-03-13T13:00:55.754Z,7.18
2023-03-13T13:03:53.195Z,6.00
2023-03-13T13:06:58.298Z,5.05
2023-03-13T13:10:10.877Z,5.82
2023-03-13T13:13:15.289Z,5.75
2023-03-13T13:16:05.938Z,5.53
2023-03-13T13:18:52.529Z,5.57
2023-03-13T13:21:38.616Z,4.78
2023-03-13T13:24:43.713Z,5.43
2023-03-13T13:27:32.705Z,9.52
2023-03-13T13:30:19.015Z,6.90
2023-03-13T13:33:31.124Z,9.48
2023-03-13T13:36:21.683Z,10.18
2023-03-13T13:39:23.359Z,5.13
2023-03-13T13:42:28.237Z,5.10
2023-03-13T13:45:20.825Z,5.28
2023-03-13T13:48:15.808Z,4.85
2023-03-13T13:51:19.005Z,4.55
2023-03-13T13:54:23.981Z,4.82
2023-03-13T13:57:15.136Z,7.82
2023-03-13T14:00:19.926Z,5.03
2023-03-13T14:03:16.967Z,5.03
2023-03-13T14:06:05.050Z,5.50
2023-03-13T14:08:53.609Z,4.15
2023-03-13T14:11:40.085Z,3.88
2023-03-13T14:14:45.121Z,4.57
2023-03-13T14:17:31.304Z,6.90
2023-03-13T14:20:17.620Z,4.75
2023-03-13T14:23:10.313Z,12.00
2023-03-13T14:25:59.228Z,5.13
2023-03-13T14:28:48.668Z,4.88
2023-03-13T14:31:36.482Z,5.03
2023-03-13T14:34:23.188Z,4.95
2023-03-13T14:37:29.453Z,5.57
2023-03-13T14:40:19.078Z,5.70
2023-03-13T14:43:05.353Z,73.40
2023-03-13T14:45:51.367Z,7.00
2023-03-13T14:48:37.839Z,4.55
2023-03-13T14:51:28.066Z,4.75
2023-03-13T14:54:31.415Z,4.38
2023-03-13T14:57:21.426Z,6.22
2023-03-13T15:00:23.114Z,6.82
2023-03-13T15:03:21.605Z,4.80
2023-03-13T15:06:10.884Z,5.30
2023-03-13T15:09:16.936Z,4.97
2023-03-13T15:12:03.079Z,10.90
2023-03-13T15:14:50.669Z,8.25
2023-03-13T15:17:36.668Z,5.15
2023-03-13T15:20:23.355Z,3.58
2023-03-13T15:23:14.484Z,4.95
2023-03-13T15:26:00.605Z,4.60
2023-03-13T15:28:47.049Z,5.00
2023-03-13T15:31:33.116Z,6.20
2023-03-13T15:34:21.286Z,5.90
2023-03-13T15:37:09.766Z,6.03
2023-03-13T15:39:56.721Z,17.67
2023-03-13T15:42:43.072Z,12.55
2023-03-13T15:45:51.709Z,5.68
2023-03-13T15:48:38.330Z,5.70
2023-03-13T15:51:24.331Z,5.03
2023-03-13T15:54:10.825Z,7.45
2023-03-13T15:56:57.032Z,7.88
2023-03-13T15:59:44.502Z,16.83
2023-03-13T16:02:30.481Z,7.32
2023-03-13T16:05:17.125Z,8.88
2023-03-13T16:08:03.131Z,46.55
2023-03-13T16:10:49.700Z,25.25
2023-03-13T16:13:35.980Z,28.10
2023-03-13T16:16:24.812Z,36.25
2023-03-13T16:19:11.473Z,22.13
2023-03-13T16:21:57.491Z,34.20
2023-03-13T16:24:43.812Z,63.75
2023-03-13T16:27:30.193Z,39.20
2023-03-13T16:30:16.895Z,33.83
2023-03-13T16:33:03.334Z,59.88
2023-03-13T16:35:49.472Z,49.97
2023-03-13T16:38:35.674Z,47.25
2023-03-13T16:41:24.011Z,41.08
2023-03-13T16:44:10.689Z,32.65
2023-03-13T16:47:05.571Z,27.33
2023-03-13T16:49:52.750Z,16.38
2023-03-13T16:52:38.731Z,14.25
2023-03-13T16:55:28.434Z,16.38
2023-03-13T16:58:14.779Z,18.83
2023-03-13T17:04:12.780Z,20.50
2023-03-13T17:06:59.053Z,14.05
2023-03-13T17:09:45.269Z,11.88
2023-03-13T17:12:31.506Z,11.68
2023-03-13T17:15:18.435Z,10.85
2023-03-13T17:18:04.962Z,1.38
2023-03-13T17:20:51.394Z,10.10
2023-03-13T17:23:37.839Z,1.83
2023-03-13T17:26:25.761Z,15.35
2023-03-13T17:29:17.701Z,1.67
2023-03-13T17:32:06.333Z,2.08
2023-03-13T17:34:53.033Z,1.00
2023-03-13T17:37:39.236Z,3.78
2023-03-13T17:40:27.987Z,8.80
2023-03-13T17:43:14.581Z,2.05
2023-03-13T17:46:01.124Z,1.38
2023-03-13T17:48:47.900Z,8.43
2023-03-13T17:51:34.805Z,5.47
2023-03-13T17:54:24.098Z,25.25
2023-03-13T17:57:21.082Z,13.40
2023-03-13T18:00:17.457Z,19.35
2023-03-13T18:03:06.532Z,3.30
2023-03-13T18:05:52.733Z,15.85
2023-03-13T18:08:39.113Z,4.45
2023-03-13T18:11:25.832Z,4.43
2023-03-13T18:14:12.085Z,16.33
2023-03-13T18:16:58.440Z,15.57
2023-03-13T18:19:44.832Z,2.35
2023-03-13T18:22:31.173Z,16.35
2023-03-13T18:25:21.366Z,18.73
2023-03-13T18:28:09.886Z,4.10
2023-03-13T18:31:01.456Z,5.18
2023-03-13T18:33:48.014Z,8.40
2023-03-13T18:36:34.306Z,49.13
2023-03-13T18:39:20.785Z,37.47
2023-03-13T18:42:07.367Z,7.35
2023-03-13T18:44:53.800Z,21.65
2023-03-13T18:47:40.203Z,3.65
2023-03-13T18:50:28.076Z,5.38
2023-03-13T18:53:14.027Z,4.35
2023-03-13T18:56:05.878Z,4.38
2023-03-13T18:58:52.954Z,4.57
2023-03-13T19:01:42.952Z,3.38
2023-03-13T19:04:29.022Z,2.08
2023-03-13T19:07:17.159Z,10.05
2023-03-13T19:10:04.378Z,3.42
2023-03-13T19:12:50.553Z,9.70
2023-03-13T19:15:37.008Z,8.90
2023-03-13T19:18:23.207Z,8.13
2023-03-13T19:21:15.560Z,2.65
2023-03-13T19:24:01.993Z,2.75
2023-03-13T19:26:54.041Z,1.38
2023-03-13T19:29:40.432Z,1.10
2023-03-13T19:32:26.566Z,1.88
2023-03-13T19:35:13.064Z,2.70
2023-03-13T19:38:09.868Z,5.25
2023-03-13T19:41:15.015Z,1.85
2023-03-13T19:44:01.387Z,1.67
2023-03-13T19:46:47.420Z,17.83
2023-03-13T19:49:33.923Z,2.92
2023-03-13T19:52:19.733Z,2.92
2023-03-13T19:55:06.388Z,2.97
2023-03-13T19:57:52.743Z,4.60
2023-03-13T20:00:39.435Z,3.40
2023-03-13T20:03:25.736Z,5.10
2023-03-13T20:06:19.357Z,3.08
2023-03-13T20:09:20.466Z,5.80
2023-03-13T20:12:07.020Z,7.28
2023-03-13T20:14:53.059Z,4.18
2023-03-13T20:17:40.604Z,2.88
2023-03-13T20:20:26.853Z,10.02
2023-03-13T20:23:13.058Z,5.65
2023-03-13T20:26:03.884Z,6.57
2023-03-13T20:29:08.818Z,9.10
2023-03-13T20:31:55.644Z,9.13
2023-03-13T20:34:42.018Z,7.00
2023-03-13T20:37:28.314Z,9.10
2023-03-13T20:40:17.281Z,5.70
2023-03-13T20:43:03.486Z,29.92
2023-03-13T20:45:52.383Z,4.28
2023-03-13T20:48:39.497Z,3.55
2023-03-13T20:51:25.936Z,3.58
2023-03-13T20:54:12.015Z,2.45
2023-03-13T20:56:58.305Z,2.88
2023-03-13T20:59:44.734Z,3.40
2023-03-13T21:02:30.933Z,2.15
2023-03-13T21:05:17.741Z,4.45
2023-03-13T21:08:03.950Z,4.35
2023-03-13T21:10:50.211Z,3.80
2023-03-13T21:13:36.516Z,5.93
2023-03-13T21:16:22.766Z,4.97
2023-03-13T21:19:08.968Z,5.18
2023-03-13T21:21:55.587Z,3.70
2023-03-13T21:24:41.795Z,3.50
2023-03-13T21:27:27.805Z,2.35
2023-03-13T21:30:15.640Z,22.60
2023-03-13T21:33:01.791Z,5.07
2023-03-13T21:35:49.381Z,5.38
2023-03-13T21:38:36.011Z,5.28
2023-03-13T21:41:22.967Z,5.45
2023-03-13T21:44:09.424Z,10.10
2023-03-13T21:46:57.085Z,7.30
2023-03-13T21:49:43.351Z,5.75
2023-03-13T21:52:32.593Z,5.25
2023-03-13T21:55:19.546Z,3.22
2023-03-13T21:58:05.943Z,2.20
2023-03-13T22:00:56.298Z,3.30
2023-03-13T22:03:42.405Z,4.13
2023-03-13T22:06:28.535Z,3.15
2023-03-13T22:09:14.798Z,2.03
2023-03-13T22:12:00.924Z,1.95
2023-03-13T22:14:47.328Z,2.10
2023-03-13T22:17:33.257Z,3.25
2023-03-13T22:20:19.685Z,8.68
2023-03-13T22:23:07.355Z,28.17
2023-03-13T22:25:57.068Z,5.70
2023-03-13T22:28:42.953Z,4.85
2023-03-13T22:31:29.051Z,3.38
2023-03-13T22:34:15.354Z,4.47
2023-03-13T22:37:01.923Z,2.67
2023-03-13T22:39:50.168Z,4.35
2023-03-13T22:42:36.412Z,2.75
2023-03-13T22:45:23.246Z,2.63
2023-03-13T22:48:09.299Z,3.13
2023-03-13T22:51:02.320Z,3.45
2023-03-13T22:53:48.540Z,1.77
2023-03-13T22:56:34.778Z,2.92
2023-03-13T22:59:20.883Z,4.80
2023-03-13T23:02:07.287Z,7.35
2023-03-13T23:04:57.887Z,3.05
2023-03-13T23:07:44.689Z,1.90
2023-03-13T23:10:30.675Z,1.95
2023-03-13T23:13:17.001Z,2.75
2023-03-13T23:16:07.342Z,1.00
2023-03-13T23:18:53.629Z,2.00
2023-03-13T23:21:40.045Z,1.77
2023-03-13T23:24:26.100Z,1.45
2023-03-13T23:27:12.401Z,1.50
2023-03-13T23:30:01.873Z,0.90
2023-03-13T23:32:51.153Z,1.27
2023-03-13T23:35:38.200Z,1.25
2023-03-13T23:38:25.567Z,0.70
2023-03-13T23:41:13.464Z,2.25
2023-03-13T23:44:18.558Z,1.80
2023-03-13T23:47:04.822Z,1.20
2023-03-13T23:49:51.781Z,1.08
2023-03-13T23:52:40.608Z,0.82
2023-03-13T23:55:26.763Z,1.50
2023-03-13T23:58:12.905Z,1.58
